Contact Us:
Email: info@sawbill.com
Phone: (218)663-7150
Fax: (218)663-7980
Mail: 4620 Sawbill Trail
Box 2129
Tofte, MN 55615


Powered by
Movable Type 3.15
 
Sawbill Weather History Archives: July 2012
Current Sawbill Weather History | « June 2012 | August 2012 »


Date

High
Temperature

Low
Temperature

Barometric
Pressure

Relative
Humidity 7AM

9 AM
Temperature

Moisture

Snow

7/31/12 77 59 30.06 81% 60 0"
7/30/12 72 58 30.18 88% 58 .08"
7/29/12 78 61 30.03 98% 61 .81"
7/28/12 76 56 30.21 91% 64 0
7/27/12 71 49 30.33 52% 54 0
7/26/12 64 56 30.18 98% 56 .56"
7/25/12 69 60 29.91 95% 61 .34"
7/24/12 78 55 29.94 98% 61 1.6"
7/23/12 76 56 30.02 72% 58 0
7/22/12 82 60 30.03 90% 65 .08"
7/21/12 79 56 30.21 82% 60 0
7/20/12 82 54 30.18 61% 65 Trace
7/19/12 74 53 30.27 74% 54 0
7/18/12 73 54 30.27 72% 57 0
7/17/12 77 56 30.18 75% 56 0
7/16/12 85 63 30.09 79% 66 .14"
7/15/12 80 63 30.00 90% 63 .16"
7/14/12 82 66 30.24 82% 66 Trace
7/13/12 81 62 30.12 91% 65 0
7/12/12 83 63 30.15 74% 63 0
7/11/12 83 57 30.21 63% 65 0
7/10/12 77 58 30.30 30% 65 0
7/9/12 77 54 30.36 30% 58 0
7/8/12 77 54 30.33 31% 59 0
7/7/12 78 58 30.30 33% 66 0
7/6/12 71 59 30.33 65% 63 .64"
7/5/12 81 64 30.27 82% 64 .12"
7/4/12 83 62 30.03 95% 71 0
7/3/12 86 64 30.03 74% 64 0
7/2/12 84 62 30.00 82% 67 .02"
7/1/12 83 61 30.15 73% 62 0
 


Home I Trip Planning I Rentals and Outfitting I Reservations I Campgrounds I Sawbill Store I Sawbill News I Contact

© 1997 - 2017, Sawbill Canoe Outfitters, Inc. I Privacy Policy